createdAt,value
2019-02-21T17:03:49.801Z,67.37
2019-02-21T17:08:53.561Z,41.65
2019-02-21T17:13:57.617Z,62.05
2019-02-21T17:19:03.283Z,64.82
2019-02-21T17:24:08.016Z,82.12
2019-02-21T17:29:11.283Z,71.20
2019-02-21T17:34:15.797Z,66.22
2019-02-21T17:39:19.256Z,52.43
2019-02-21T17:44:23.030Z,52.93
2019-02-21T17:49:26.189Z,35.98
2019-02-21T17:54:29.460Z,30.70
2019-02-21T17:59:35.420Z,41.95
2019-02-21T18:04:38.659Z,33.90
2019-02-21T18:09:41.900Z,33.47
2019-02-21T18:14:45.335Z,34.08
2019-02-21T18:19:50.973Z,32.23
2019-02-21T18:24:54.434Z,35.40
2019-02-21T18:29:58.023Z,33.50
2019-02-21T18:35:01.595Z,39.00
2019-02-21T18:40:16.911Z,52.62
2019-02-21T18:45:12.537Z,63.13
2019-02-21T18:50:15.960Z,39.18
2019-02-21T18:55:22.566Z,34.70
2019-02-21T19:00:26.627Z,37.48
2019-02-21T19:05:35.954Z,38.10
2019-02-21T19:10:36.310Z,37.53
2019-02-21T19:15:40.012Z,31.55
2019-02-21T19:20:43.230Z,33.73
2019-02-21T19:25:47.094Z,32.20
2019-02-21T19:30:55.145Z,35.00
2019-02-21T19:35:58.519Z,30.10
2019-02-21T19:41:04.462Z,30.62
2019-02-21T19:46:08.054Z,26.30
2019-02-21T19:51:11.206Z,37.77
2019-02-21T19:56:15.000Z,33.88
2019-02-21T20:01:18.415Z,45.28
2019-02-21T20:06:21.484Z,41.08
2019-02-21T20:11:24.947Z,34.53
2019-02-21T20:16:28.250Z,42.58
2019-02-21T20:21:31.575Z,31.77
2019-02-21T20:26:34.656Z,32.00
2019-02-21T20:31:37.894Z,45.33
2019-02-21T20:36:50.753Z,47.90
2019-02-21T20:41:46.949Z,80.37
2019-02-21T20:46:50.358Z,56.65
2019-02-21T20:51:53.700Z,57.83
2019-02-21T20:56:57.055Z,35.70
2019-02-21T21:02:00.392Z,52.27
2019-02-21T21:07:04.800Z,38.97
2019-02-21T21:12:07.999Z,39.97
2019-02-21T21:17:12.432Z,38.13
2019-02-21T21:22:17.397Z,39.87
2019-02-21T21:27:20.501Z,44.70
2019-02-21T21:32:23.825Z,57.93
2019-02-21T21:37:27.406Z,46.60
2019-02-21T21:42:30.473Z,34.13
2019-02-21T21:47:33.602Z,34.80
2019-02-21T21:52:36.820Z,40.77
2019-02-21T21:57:40.128Z,39.97
2019-02-21T22:02:43.347Z,27.97
2019-02-21T22:07:49.228Z,30.97
2019-02-21T22:12:52.198Z,33.50
2019-02-21T22:17:55.554Z,27.53
2019-02-21T22:23:02.113Z,31.80
2019-02-21T22:28:05.488Z,25.80
2019-02-21T22:33:08.525Z,29.97
2019-02-21T22:38:11.782Z,27.20
2019-02-21T22:43:15.565Z,26.17
2019-02-21T22:48:19.528Z,43.73
2019-02-21T22:53:22.910Z,33.60
2019-02-21T22:58:26.205Z,31.87
2019-02-21T23:03:47.945Z,32.27
2019-02-21T23:08:52.667Z,29.23
2019-02-21T23:13:56.081Z,25.93
2019-02-21T23:18:59.363Z,36.03
2019-02-21T23:24:03.528Z,32.50
2019-02-21T23:29:08.391Z,35.83
2019-02-21T23:34:17.415Z,32.10
2019-02-21T23:39:20.576Z,32.60
2019-02-21T23:44:23.784Z,26.83
2019-02-21T23:49:26.999Z,25.77
2019-02-21T23:54:30.401Z,24.90
2019-02-21T23:59:33.668Z,26.33
